Hauptseite
METAR-TAF:

METAR-TAF

Flughäfen :

Flughafen Arad

Arad, Rumänien

Breite: 46-12N, Länge: 021-24E, Höhe: 117 m

Beobachtung

Neuester Wetterbericht von vor 34 Minuten, um 00:00 UTC
Wind 4 kt aus Südost
Temperatur 21°C
Luftfeuchtigkeit 88%
Luftdruck 1018 hPa
Sichtweite 10 km oder mehr

METAR: LRAR 210000Z AUTO 14004KT 9999 NCD 21/19 Q1018

Zeit: 03:34 (00:34 UTC)

Prognose

Neuester Wetterbericht von vor 7 Stunden und 34 Minuten, um 17:00 UTC
Gültige Prognose vom 20 um 18 UTC bis 21 um 03 UTC
Wind 4 kt aus unterschiedlichen Richtungen
Sichtweite 10 km oder mehr
keine Wolken unter 1500 m und keine Kumulonimbus oder Gewitterwolken
Übergehend zu
vom 20 um 23 UTC bis 21 um 01 UTC
Sichtweite: 5000 m
feuchter Dunst

TAF: LRAR 201700Z 2018/2103 VRB04KT CAVOK BECMG 2023/2101 5000 BR

Wetterbeobachtungen und Prognosen von mehr als 4000 Flughäfen (METAR und TAF Bericht).

Die verfügbaren Stationen werden durch gelbe und rote Markierungen auf der Karte dargestellt.

Führen Sie die Maus auf sie, um den Namen der Station zu sehen.

Darauf klicken, um die Beobachtung von Wetterbeobachtungen und Prognosen zu sehen.

Um die Karte zu ändern : klicken Sie auf den grünen Tasten mit einem schwarzen Kreuz Zum Vergrößern, auf den grünen Button mit einem Gedankenstrich zu verkleinern, oder auf die grünen Pfeile für benachbarte Karten.


METAR-TAF: